Main page
METAR-TAF:

METAR-TAF

Airports :

Menominee-Marinette Twin County Airport

Menominee, Michigan, United States

latitude: 45-08N, longitude: 087-38W, elevation: 626 ft

Current weather observation

The report was made 20 minutes ago, at 12:57 UTC
Wind 10 mph from the North
Temperature 28°F
Humidity 74%
Pressure 29.73 in. Hg
Visibility: 10 miles
Broken clouds at a height of 2400 ft
Overcast at a height of 2900 ft

METAR: KMNM 231257Z AUTO 01009KT 10SM BKN024 OVC029 M02/M06 A2973 RMK AO2 SLP087 T10171061 FZRANO $

Time: 08:17 (13:17 UTC)


TAF: missing

Weather observations and forecasts of more than 4000 airports (METAR and TAF reports).

The available stations are represented by yellow and red dots on the map.

Hover mouse over dot to see the name of the station.

Then click to see weather observations and forecasts.

To change the map : click on the green buttons with a black cross to zoom in, on the green button with a dash to zoom out, or on the green arrows for adjacent maps.


METAR-TAF: